English Bay — VRYQ9 — position and weather

sailwx.info

Track history (hours):
 
Tides and Currents Weather Stations Pressure Air Temp Water Temp Dewpoint Dewpoint Depression Visibility Wind Speed Wind Dir Waves Ship Positions

English Bay

Last reported at 2018-Jan-19 14:46 UTC. Time now 2018-Jan-19 15:23 UTC.
Position N 47°33' W 122°20'.

Length 177 m; draft 9.9 m.

Type: Cargo ship. MMSI: 477101000.

Date/timePositionNaut miles runAvg speedWind from/ knotsBaromVisibWave heightAir tempDewpointWater temp
2018-Jan-19 14:46N 47°33' W 122°20'0 0.0
2018-Jan-19 13:52N 47°33' W 122°20'0 0.0
2018-Jan-19 13:22N 47°33' W 122°20'0 0.0
2018-Jan-19 06:52N 47°33' W 122°20'0 0.0
2018-Jan-19 05:28N 47°33' W 122°20'0 0.0
2018-Jan-19 04:46N 47°33' W 122°20'0 0.0
2018-Jan-19 04:22N 47°33' W 122°20'0 0.0
2018-Jan-19 01:49N 47°33' W 122°20'0 0.6
2018-Jan-19 01:30N 47°33' W 122°20'1 1.7
2018-Jan-19 01:00N 47°34' W 122°21'1 1.4
2018-Jan-19 00:30N 47°34' W 122°21'1 2.1
2018-Jan-19 00:00N 47°36' W 122°22'2 3.7
2018-Jan-18 23:30N 47°37' W 122°24'4 8.1
2018-Jan-18 23:00N 47°39' W 122°28'611.4
2018-Jan-18 22:30N 47°45' W 122°27'612.4
2018-Jan-18 22:00N 47°51' W 122°28'611.9
2018-Jan-18 21:29N 47°57' W 122°33'811.6
2018-Jan-18 20:47N 48°04' W 122°39'311.4
2018-Jan-18 20:29N 48°07' W 122°41'612.0
2018-Jan-18 19:59N 48°11' W 122°48'2311.7
2018-Jan-18 18:00N 48°10' W 123°23'4 6.3
2018-Jan-18 17:26N 48°11' W 123°27'10 7.1
2018-Jan-18 16:03N 48°13' W 123°42'0 3.1
2018-Jan-18 16:00N 48°13' W 123°42'0 0.2
2018-Jan-18 15:19N 48°13' W 123°42'0 0.7
2018-Jan-18 14:59N 48°13' W 123°43'1 1.8
2018-Jan-18 14:24N 48°13' W 123°44'2 3.7
2018-Jan-18 13:58N 48°13' W 123°47'3 5.7
2018-Jan-18 13:30N 48°13' W 123°51'2 4.4
2018-Jan-18 13:00N 48°13' W 123°54'3 6.0
2018-Jan-18 12:29N 48°14' W 123°58'3 6.2
2018-Jan-18 12:00N 48°15' W 124°02'4 7.3
2018-Jan-18 11:30N 48°17' W 124°07'4 7.5
2018-Jan-18 11:00N 48°19' W 124°12'4 7.8
2018-Jan-18 10:30N 48°20' W 124°18'4 7.4
2018-Jan-18 10:00N 48°22' W 124°23'4 7.4
2018-Jan-18 09:30N 48°23' W 124°28'4 7.4
2018-Jan-18 09:00N 48°25' W 124°33'3 6.0
2018-Jan-18 08:30N 48°26' W 124°37'4 7.0
2018-Jan-18 08:00N 48°28' W 124°42'5 9.2
2018-Jan-18 07:30N 48°28' W 124°48'5 9.1
2018-Jan-18 07:00N 48°28' W 124°55'4 8.1
2018-Jan-18 06:30N 48°28' W 125°02'4 7.4
2018-Jan-18 05:58N 48°28' W 125°07'3 7.0
2018-Jan-18 05:30N 48°28' W 125°12'4 7.3
2018-Jan-18 04:59N 48°28' W 125°18'4 7.6
2018-Jan-18 04:29N 48°28' W 125°24'4 7.6
2018-Jan-18 03:59N 48°27' W 125°29'5 7.9
2018-Jan-18 03:19N 48°26' W 125°37'3 7.8
2018-Jan-18 02:54N 48°25' W 125°42'3 7.9
2018-Jan-18 02:30N 48°24' W 125°47'4 7.7
2018-Jan-18 01:56N 48°23' W 125°53'4 7.6
2018-Jan-18 01:26N 48°23' W 125°59'244 8.6
2018-Jan-16 21:00N 48°30' W 132°06'25811.2 210 / 161013.0 5.4 8.0 10.0
2018-Jan-15 22:00N 48°30' W 138°36'   230 / 30984.0 5.4 8.0 8.0
2018-Jan-09 19:00N 53°12' W 173°24'   120 / 20978.0 5.4 6.0 5.0
Track history (hours):
 
Tides and Currents Weather Stations Pressure Air Temp Water Temp Dewpoint Dewpoint Depression Visibility Wind Speed Wind Dir Waves Ship Positions

English Bay

Last reported at 2018-Jan-19 14:46 UTC. Time now 2018-Jan-19 15:23 UTC.
Position N 47°33' W 122°20'.

Length 177 m; draft 9.9 m.

Type: Cargo ship. MMSI: 477101000.

Date/timePositionNaut miles runAvg speedWind from/ knotsBaromVisibWave heightAir tempDewpointWater temp
2018-Jan-19 14:46N 47°33' W 122°20'0 0.0
2018-Jan-19 13:52N 47°33' W 122°20'0 0.0
2018-Jan-19 13:22N 47°33' W 122°20'0 0.0
2018-Jan-19 06:52N 47°33' W 122°20'0 0.0
2018-Jan-19 05:28N 47°33' W 122°20'0 0.0
2018-Jan-19 04:46N 47°33' W 122°20'0 0.0
2018-Jan-19 04:22N 47°33' W 122°20'0 0.0
2018-Jan-19 01:49N 47°33' W 122°20'0 0.6
2018-Jan-19 01:30N 47°33' W 122°20'1 1.7
2018-Jan-19 01:00N 47°34' W 122°21'1 1.4
2018-Jan-19 00:30N 47°34' W 122°21'1 2.1
2018-Jan-19 00:00N 47°36' W 122°22'2 3.7
2018-Jan-18 23:30N 47°37' W 122°24'4 8.1
2018-Jan-18 23:00N 47°39' W 122°28'611.4
2018-Jan-18 22:30N 47°45' W 122°27'612.4
2018-Jan-18 22:00N 47°51' W 122°28'611.9
2018-Jan-18 21:29N 47°57' W 122°33'811.6
2018-Jan-18 20:47N 48°04' W 122°39'311.4
2018-Jan-18 20:29N 48°07' W 122°41'612.0
2018-Jan-18 19:59N 48°11' W 122°48'2311.7
2018-Jan-18 18:00N 48°10' W 123°23'4 6.3
2018-Jan-18 17:26N 48°11' W 123°27'10 7.1
2018-Jan-18 16:03N 48°13' W 123°42'0 3.1
2018-Jan-18 16:00N 48°13' W 123°42'0 0.2
2018-Jan-18 15:19N 48°13' W 123°42'0 0.7
2018-Jan-18 14:59N 48°13' W 123°43'1 1.8
2018-Jan-18 14:24N 48°13' W 123°44'2 3.7
2018-Jan-18 13:58N 48°13' W 123°47'3 5.7
2018-Jan-18 13:30N 48°13' W 123°51'2 4.4
2018-Jan-18 13:00N 48°13' W 123°54'3 6.0
2018-Jan-18 12:29N 48°14' W 123°58'3 6.2
2018-Jan-18 12:00N 48°15' W 124°02'4 7.3
2018-Jan-18 11:30N 48°17' W 124°07'4 7.5
2018-Jan-18 11:00N 48°19' W 124°12'4 7.8
2018-Jan-18 10:30N 48°20' W 124°18'4 7.4
2018-Jan-18 10:00N 48°22' W 124°23'4 7.4
2018-Jan-18 09:30N 48°23' W 124°28'4 7.4
2018-Jan-18 09:00N 48°25' W 124°33'3 6.0
2018-Jan-18 08:30N 48°26' W 124°37'4 7.0
2018-Jan-18 08:00N 48°28' W 124°42'5 9.2
2018-Jan-18 07:30N 48°28' W 124°48'5 9.1
2018-Jan-18 07:00N 48°28' W 124°55'4 8.1
2018-Jan-18 06:30N 48°28' W 125°02'4 7.4
2018-Jan-18 05:58N 48°28' W 125°07'3 7.0
2018-Jan-18 05:30N 48°28' W 125°12'4 7.3
2018-Jan-18 04:59N 48°28' W 125°18'4 7.6
2018-Jan-18 04:29N 48°28' W 125°24'4 7.6
2018-Jan-18 03:59N 48°27' W 125°29'5 7.9
2018-Jan-18 03:19N 48°26' W 125°37'3 7.8
2018-Jan-18 02:54N 48°25' W 125°42'3 7.9
2018-Jan-18 02:30N 48°24' W 125°47'4 7.7
2018-Jan-18 01:56N 48°23' W 125°53'4 7.6
2018-Jan-18 01:26N 48°23' W 125°59'244 8.6
2018-Jan-16 21:00N 48°30' W 132°06'25811.2 210 / 161013.0 5.4 8.0 10.0
2018-Jan-15 22:00N 48°30' W 138°36'   230 / 30984.0 5.4 8.0 8.0
2018-Jan-09 19:00N 53°12' W 173°24'   120 / 20978.0 5.4 6.0 5.0

Dump ship's entire track history